sensor_id;sensor_type;location;lat;lon;timestamp;P1;durP1;ratioP1;P2;durP2;ratioP2
45642;SDS011;31358;46.008;11.144;2022-07-29T00:01:51;4.32;;;1.30;;
45642;SDS011;31358;46.008;11.144;2022-07-29T00:04:17;3.47;;;1.75;;
45642;SDS011;31358;46.008;11.144;2022-07-29T00:06:43;4.30;;;1.90;;
45642;SDS011;31358;46.008;11.144;2022-07-29T00:09:09;3.72;;;1.88;;
45642;SDS011;31358;46.008;11.144;2022-07-29T00:11:35;3.40;;;1.63;;
45642;SDS011;31358;46.008;11.144;2022-07-29T00:14:01;4.20;;;1.77;;
45642;SDS011;31358;46.008;11.144;2022-07-29T00:16:26;4.00;;;1.92;;
45642;SDS011;31358;46.008;11.144;2022-07-29T00:18:52;3.85;;;2.08;;
45642;SDS011;31358;46.008;11.144;2022-07-29T00:21:17;4.07;;;1.63;;
45642;SDS011;31358;46.008;11.144;2022-07-29T00:23:43;4.00;;;2.75;;
45642;SDS011;31358;46.008;11.144;2022-07-29T00:26:09;4.18;;;1.85;;
45642;SDS011;31358;46.008;11.144;2022-07-29T00:28:34;5.40;;;2.00;;
45642;SDS011;31358;46.008;11.144;2022-07-29T00:31:00;3.55;;;1.75;;
45642;SDS011;31358;46.008;11.144;2022-07-29T00:33:26;3.60;;;2.03;;
45642;SDS011;31358;46.008;11.144;2022-07-29T00:35:51;3.95;;;2.15;;
45642;SDS011;31358;46.008;11.144;2022-07-29T00:38:18;3.80;;;1.63;;
45642;SDS011;31358;46.008;11.144;2022-07-29T00:40:46;2.65;;;1.50;;
45642;SDS011;31358;46.008;11.144;2022-07-29T00:43:13;3.70;;;1.70;;
45642;SDS011;31358;46.008;11.144;2022-07-29T00:45:39;5.32;;;2.30;;
45642;SDS011;31358;46.008;11.144;2022-07-29T00:48:06;4.72;;;1.92;;
45642;SDS011;31358;46.008;11.144;2022-07-29T00:50:33;3.95;;;1.83;;
45642;SDS011;31358;46.008;11.144;2022-07-29T00:52:59;6.30;;;2.10;;
45642;SDS011;31358;46.008;11.144;2022-07-29T00:55:27;4.20;;;1.80;;
45642;SDS011;31358;46.008;11.144;2022-07-29T00:57:53;3.72;;;1.90;;
45642;SDS011;31358;46.008;11.144;2022-07-29T01:00:21;3.65;;;1.80;;
45642;SDS011;31358;46.008;11.144;2022-07-29T01:02:49;4.55;;;2.25;;
45642;SDS011;31358;46.008;11.144;2022-07-29T01:05:16;5.25;;;1.50;;
45642;SDS011;31358;46.008;11.144;2022-07-29T01:07:44;3.95;;;1.65;;
45642;SDS011;31358;46.008;11.144;2022-07-29T01:10:11;3.33;;;1.83;;
45642;SDS011;31358;46.008;11.144;2022-07-29T01:12:38;3.83;;;2.25;;
45642;SDS011;31358;46.008;11.144;2022-07-29T01:15:05;3.70;;;2.00;;
45642;SDS011;31358;46.008;11.144;2022-07-29T01:17:33;4.82;;;2.42;;
45642;SDS011;31358;46.008;11.144;2022-07-29T01:20:23;4.18;;;2.47;;
45642;SDS011;31358;46.008;11.144;2022-07-29T01:23:08;4.93;;;2.50;;
45642;SDS011;31358;46.008;11.144;2022-07-29T01:25:54;6.55;;;3.03;;
45642;SDS011;31358;46.008;11.144;2022-07-29T01:31:11;5.47;;;2.45;;
45642;SDS011;31358;46.008;11.144;2022-07-29T01:33:45;5.95;;;2.50;;
45642;SDS011;31358;46.008;11.144;2022-07-29T01:39:23;4.80;;;2.67;;
45642;SDS011;31358;46.008;11.144;2022-07-29T01:44:57;5.03;;;2.95;;
45642;SDS011;31358;46.008;11.144;2022-07-29T01:47:26;5.43;;;2.72;;
45642;SDS011;31358;46.008;11.144;2022-07-29T01:50:19;3.72;;;2.42;;
45642;SDS011;31358;46.008;11.144;2022-07-29T01:52:52;6.10;;;2.60;;
45642;SDS011;31358;46.008;11.144;2022-07-29T01:55:24;4.13;;;2.60;;
45642;SDS011;31358;46.008;11.144;2022-07-29T01:57:53;5.45;;;2.60;;
45642;SDS011;31358;46.008;11.144;2022-07-29T02:00:21;6.30;;;3.55;;
45642;SDS011;31358;46.008;11.144;2022-07-29T02:02:48;4.45;;;2.50;;
45642;SDS011;31358;46.008;11.144;2022-07-29T02:05:15;5.03;;;2.50;;
45642;SDS011;31358;46.008;11.144;2022-07-29T02:07:44;5.97;;;2.70;;
45642;SDS011;31358;46.008;11.144;2022-07-29T02:10:12;5.80;;;2.42;;
45642;SDS011;31358;46.008;11.144;2022-07-29T02:12:40;4.30;;;2.38;;
45642;SDS011;31358;46.008;11.144;2022-07-29T02:15:08;4.80;;;2.67;;
45642;SDS011;31358;46.008;11.144;2022-07-29T02:17:40;5.75;;;2.33;;
45642;SDS011;31358;46.008;11.144;2022-07-29T02:20:08;6.45;;;2.70;;
45642;SDS011;31358;46.008;11.144;2022-07-29T02:22:35;3.92;;;2.33;;
45642;SDS011;31358;46.008;11.144;2022-07-29T02:25:03;4.30;;;2.60;;
45642;SDS011;31358;46.008;11.144;2022-07-29T02:27:30;5.68;;;2.78;;
45642;SDS011;31358;46.008;11.144;2022-07-29T02:29:58;3.80;;;2.53;;
45642;SDS011;31358;46.008;11.144;2022-07-29T02:32:27;4.93;;;2.42;;
45642;SDS011;31358;46.008;11.144;2022-07-29T02:34:54;4.43;;;1.92;;
45642;SDS011;31358;46.008;11.144;2022-07-29T02:37:21;5.78;;;2.70;;
45642;SDS011;31358;46.008;11.144;2022-07-29T02:39:48;3.45;;;2.03;;
45642;SDS011;31358;46.008;11.144;2022-07-29T02:42:17;4.43;;;2.20;;
45642;SDS011;31358;46.008;11.144;2022-07-29T02:44:43;3.78;;;1.88;;
45642;SDS011;31358;46.008;11.144;2022-07-29T02:47:20;3.78;;;2.00;;
45642;SDS011;31358;46.008;11.144;2022-07-29T02:49:53;4.28;;;2.35;;
45642;SDS011;31358;46.008;11.144;2022-07-29T02:52:31;4.72;;;2.45;;
45642;SDS011;31358;46.008;11.144;2022-07-29T02:58:01;4.68;;;2.45;;
45642;SDS011;31358;46.008;11.144;2022-07-29T03:00:46;4.75;;;2.15;;
45642;SDS011;31358;46.008;11.144;2022-07-29T03:03:15;3.58;;;1.90;;
45642;SDS011;31358;46.008;11.144;2022-07-29T03:05:42;3.53;;;2.10;;
45642;SDS011;31358;46.008;11.144;2022-07-29T03:08:08;4.70;;;2.17;;
45642;SDS011;31358;46.008;11.144;2022-07-29T03:10:36;4.47;;;2.00;;
45642;SDS011;31358;46.008;11.144;2022-07-29T03:13:04;4.03;;;1.88;;
45642;SDS011;31358;46.008;11.144;2022-07-29T03:15:31;4.00;;;2.00;;
45642;SDS011;31358;46.008;11.144;2022-07-29T03:17:57;3.55;;;1.73;;
45642;SDS011;31358;46.008;11.144;2022-07-29T03:20:24;4.05;;;1.88;;
45642;SDS011;31358;46.008;11.144;2022-07-29T03:22:50;3.65;;;2.22;;
45642;SDS011;31358;46.008;11.144;2022-07-29T03:25:17;5.15;;;2.10;;
45642;SDS011;31358;46.008;11.144;2022-07-29T03:27:44;4.40;;;2.05;;
45642;SDS011;31358;46.008;11.144;2022-07-29T03:30:12;5.78;;;2.10;;
45642;SDS011;31358;46.008;11.144;2022-07-29T03:32:38;4.15;;;2.13;;
45642;SDS011;31358;46.008;11.144;2022-07-29T03:35:06;3.35;;;1.60;;
45642;SDS011;31358;46.008;11.144;2022-07-29T03:37:32;7.28;;;1.92;;
45642;SDS011;31358;46.008;11.144;2022-07-29T03:39:58;3.63;;;2.10;;
45642;SDS011;31358;46.008;11.144;2022-07-29T03:42:26;3.85;;;2.35;;
45642;SDS011;31358;46.008;11.144;2022-07-29T03:44:57;4.85;;;1.58;;
45642;SDS011;31358;46.008;11.144;2022-07-29T03:47:26;5.22;;;2.05;;
45642;SDS011;31358;46.008;11.144;2022-07-29T03:49:56;5.45;;;1.88;;
45642;SDS011;31358;46.008;11.144;2022-07-29T03:52:26;3.72;;;2.17;;
45642;SDS011;31358;46.008;11.144;2022-07-29T03:54:53;3.25;;;1.95;;
45642;SDS011;31358;46.008;11.144;2022-07-29T03:57:20;4.20;;;2.10;;
45642;SDS011;31358;46.008;11.144;2022-07-29T03:59:51;4.35;;;2.00;;
45642;SDS011;31358;46.008;11.144;2022-07-29T04:02:18;3.83;;;2.20;;
45642;SDS011;31358;46.008;11.144;2022-07-29T04:04:44;4.72;;;1.92;;
45642;SDS011;31358;46.008;11.144;2022-07-29T04:07:14;3.47;;;1.70;;
45642;SDS011;31358;46.008;11.144;2022-07-29T04:09:40;3.78;;;1.80;;
45642;SDS011;31358;46.008;11.144;2022-07-29T04:12:06;3.15;;;1.90;;
45642;SDS011;31358;46.008;11.144;2022-07-29T04:14:32;4.38;;;2.10;;
45642;SDS011;31358;46.008;11.144;2022-07-29T04:17:03;4.70;;;1.65;;
45642;SDS011;31358;46.008;11.144;2022-07-29T04:19:29;3.65;;;1.60;;
45642;SDS011;31358;46.008;11.144;2022-07-29T04:21:56;4.35;;;1.67;;
45642;SDS011;31358;46.008;11.144;2022-07-29T04:24:22;3.83;;;1.77;;
45642;SDS011;31358;46.008;11.144;2022-07-29T04:26:48;3.45;;;1.63;;
45642;SDS011;31358;46.008;11.144;2022-07-29T04:29:14;4.20;;;1.83;;
45642;SDS011;31358;46.008;11.144;2022-07-29T04:31:42;6.10;;;1.70;;
45642;SDS011;31358;46.008;11.144;2022-07-29T04:34:09;3.08;;;1.52;;
45642;SDS011;31358;46.008;11.144;2022-07-29T04:36:35;4.97;;;2.40;;
45642;SDS011;31358;46.008;11.144;2022-07-29T04:39:01;3.13;;;1.65;;
45642;SDS011;31358;46.008;11.144;2022-07-29T04:41:27;3.67;;;1.98;;
45642;SDS011;31358;46.008;11.144;2022-07-29T04:43:53;5.13;;;2.22;;
45642;SDS011;31358;46.008;11.144;2022-07-29T04:46:19;4.85;;;1.88;;
45642;SDS011;31358;46.008;11.144;2022-07-29T04:48:47;4.30;;;1.70;;
45642;SDS011;31358;46.008;11.144;2022-07-29T04:51:16;2.67;;;1.55;;
45642;SDS011;31358;46.008;11.144;2022-07-29T04:53:42;3.58;;;2.10;;
45642;SDS011;31358;46.008;11.144;2022-07-29T04:56:07;3.47;;;1.77;;
45642;SDS011;31358;46.008;11.144;2022-07-29T04:58:36;4.93;;;2.00;;
45642;SDS011;31358;46.008;11.144;2022-07-29T05:01:02;4.30;;;1.40;;
45642;SDS011;31358;46.008;11.144;2022-07-29T05:03:28;4.90;;;2.00;;
45642;SDS011;31358;46.008;11.144;2022-07-29T05:05:54;3.35;;;1.45;;
45642;SDS011;31358;46.008;11.144;2022-07-29T05:08:20;3.17;;;1.60;;
45642;SDS011;31358;46.008;11.144;2022-07-29T05:10:46;5.05;;;1.65;;
45642;SDS011;31358;46.008;11.144;2022-07-29T05:13:11;3.92;;;2.00;;
45642;SDS011;31358;46.008;11.144;2022-07-29T05:15:37;3.67;;;1.95;;
45642;SDS011;31358;46.008;11.144;2022-07-29T05:18:03;3.97;;;1.90;;
45642;SDS011;31358;46.008;11.144;2022-07-29T05:20:29;6.47;;;2.10;;
45642;SDS011;31358;46.008;11.144;2022-07-29T05:22:57;4.55;;;1.63;;
45642;SDS011;31358;46.008;11.144;2022-07-29T05:25:23;3.65;;;1.77;;
45642;SDS011;31358;46.008;11.144;2022-07-29T05:27:50;5.82;;;1.90;;
45642;SDS011;31358;46.008;11.144;2022-07-29T05:30:16;5.03;;;1.92;;
45642;SDS011;31358;46.008;11.144;2022-07-29T05:32:42;4.90;;;2.03;;
45642;SDS011;31358;46.008;11.144;2022-07-29T05:35:08;4.30;;;1.70;;
45642;SDS011;31358;46.008;11.144;2022-07-29T05:37:34;4.45;;;2.22;;
45642;SDS011;31358;46.008;11.144;2022-07-29T05:39:59;4.18;;;2.08;;
45642;SDS011;31358;46.008;11.144;2022-07-29T05:42:26;3.80;;;1.63;;
45642;SDS011;31358;46.008;11.144;2022-07-29T05:44:52;5.65;;;2.05;;
45642;SDS011;31358;46.008;11.144;2022-07-29T05:47:18;5.15;;;2.13;;
45642;SDS011;31358;46.008;11.144;2022-07-29T05:49:44;3.50;;;1.90;;
45642;SDS011;31358;46.008;11.144;2022-07-29T05:52:11;5.18;;;1.77;;
45642;SDS011;31358;46.008;11.144;2022-07-29T05:54:38;3.15;;;1.80;;
45642;SDS011;31358;46.008;11.144;2022-07-29T05:57:04;3.42;;;1.65;;
45642;SDS011;31358;46.008;11.144;2022-07-29T05:59:30;3.28;;;1.65;;
45642;SDS011;31358;46.008;11.144;2022-07-29T06:01:59;3.47;;;1.65;;
45642;SDS011;31358;46.008;11.144;2022-07-29T06:04:25;3.95;;;1.80;;
45642;SDS011;31358;46.008;11.144;2022-07-29T06:06:51;3.83;;;1.90;;
45642;SDS011;31358;46.008;11.144;2022-07-29T06:09:16;3.58;;;1.88;;
45642;SDS011;31358;46.008;11.144;2022-07-29T06:11:42;3.08;;;1.63;;
45642;SDS011;31358;46.008;11.144;2022-07-29T06:14:08;4.20;;;1.95;;
45642;SDS011;31358;46.008;11.144;2022-07-29T06:16:34;4.03;;;1.50;;
45642;SDS011;31358;46.008;11.144;2022-07-29T06:18:59;3.22;;;1.80;;
45642;SDS011;31358;46.008;11.144;2022-07-29T06:21:25;3.50;;;1.88;;
45642;SDS011;31358;46.008;11.144;2022-07-29T06:23:51;3.20;;;1.60;;
45642;SDS011;31358;46.008;11.144;2022-07-29T06:26:16;3.33;;;1.50;;
45642;SDS011;31358;46.008;11.144;2022-07-29T06:28:42;4.70;;;1.77;;
45642;SDS011;31358;46.008;11.144;2022-07-29T06:31:08;5.28;;;1.65;;
45642;SDS011;31358;46.008;11.144;2022-07-29T06:33:33;5.85;;;1.75;;
45642;SDS011;31358;46.008;11.144;2022-07-29T06:35:59;5.43;;;1.92;;
45642;SDS011;31358;46.008;11.144;2022-07-29T06:38:25;3.60;;;2.00;;
45642;SDS011;31358;46.008;11.144;2022-07-29T06:40:50;3.15;;;1.30;;
45642;SDS011;31358;46.008;11.144;2022-07-29T06:43:28;3.30;;;2.00;;
45642;SDS011;31358;46.008;11.144;2022-07-29T06:46:01;3.60;;;1.60;;
45642;SDS011;31358;46.008;11.144;2022-07-29T06:48:28;2.78;;;1.52;;
45642;SDS011;31358;46.008;11.144;2022-07-29T06:50:54;3.25;;;1.63;;
45642;SDS011;31358;46.008;11.144;2022-07-29T06:53:19;3.15;;;1.60;;
45642;SDS011;31358;46.008;11.144;2022-07-29T06:55:45;3.08;;;1.40;;
45642;SDS011;31358;46.008;11.144;2022-07-29T06:58:11;5.20;;;1.95;;
45642;SDS011;31358;46.008;11.144;2022-07-29T07:00:39;5.13;;;1.75;;
45642;SDS011;31358;46.008;11.144;2022-07-29T07:03:04;3.20;;;1.88;;
45642;SDS011;31358;46.008;11.144;2022-07-29T07:05:30;4.38;;;1.85;;
45642;SDS011;31358;46.008;11.144;2022-07-29T07:07:56;2.35;;;1.42;;
45642;SDS011;31358;46.008;11.144;2022-07-29T07:10:21;3.17;;;1.60;;
45642;SDS011;31358;46.008;11.144;2022-07-29T07:12:47;2.95;;;1.70;;
45642;SDS011;31358;46.008;11.144;2022-07-29T07:15:12;4.82;;;2.05;;
45642;SDS011;31358;46.008;11.144;2022-07-29T07:17:38;3.60;;;1.83;;
45642;SDS011;31358;46.008;11.144;2022-07-29T07:20:04;3.28;;;1.50;;
45642;SDS011;31358;46.008;11.144;2022-07-29T07:22:31;3.17;;;1.70;;
45642;SDS011;31358;46.008;11.144;2022-07-29T07:24:56;3.03;;;1.50;;
45642;SDS011;31358;46.008;11.144;2022-07-29T07:27:22;2.85;;;1.55;;
45642;SDS011;31358;46.008;11.144;2022-07-29T07:29:47;3.35;;;1.45;;
45642;SDS011;31358;46.008;11.144;2022-07-29T07:32:13;4.15;;;1.80;;
45642;SDS011;31358;46.008;11.144;2022-07-29T07:34:41;2.92;;;1.55;;
45642;SDS011;31358;46.008;11.144;2022-07-29T07:37:08;4.07;;;1.70;;
45642;SDS011;31358;46.008;11.144;2022-07-29T07:39:34;2.75;;;1.48;;
45642;SDS011;31358;46.008;11.144;2022-07-29T07:42:00;2.65;;;1.40;;
45642;SDS011;31358;46.008;11.144;2022-07-29T07:44:25;5.18;;;1.77;;
45642;SDS011;31358;46.008;11.144;2022-07-29T07:46:51;3.58;;;1.52;;
45642;SDS011;31358;46.008;11.144;2022-07-29T07:49:17;4.07;;;1.77;;
45642;SDS011;31358;46.008;11.144;2022-07-29T07:51:43;3.03;;;1.42;;
45642;SDS011;31358;46.008;11.144;2022-07-29T07:54:08;2.45;;;1.27;;
45642;SDS011;31358;46.008;11.144;2022-07-29T07:56:34;5.22;;;1.73;;
45642;SDS011;31358;46.008;11.144;2022-07-29T07:59:00;3.65;;;1.92;;
45642;SDS011;31358;46.008;11.144;2022-07-29T08:01:26;5.07;;;1.13;;
45642;SDS011;31358;46.008;11.144;2022-07-29T08:03:51;3.28;;;1.45;;
45642;SDS011;31358;46.008;11.144;2022-07-29T08:06:17;3.28;;;1.75;;
45642;SDS011;31358;46.008;11.144;2022-07-29T08:08:43;3.40;;;1.50;;
45642;SDS011;31358;46.008;11.144;2022-07-29T08:11:08;2.35;;;1.27;;
45642;SDS011;31358;46.008;11.144;2022-07-29T08:13:34;2.17;;;1.33;;
45642;SDS011;31358;46.008;11.144;2022-07-29T08:16:01;3.83;;;1.88;;
45642;SDS011;31358;46.008;11.144;2022-07-29T08:18:28;3.70;;;1.50;;
45642;SDS011;31358;46.008;11.144;2022-07-29T08:20:55;3.22;;;1.50;;
45642;SDS011;31358;46.008;11.144;2022-07-29T08:23:21;3.08;;;1.50;;
45642;SDS011;31358;46.008;11.144;2022-07-29T08:25:48;3.67;;;1.63;;
45642;SDS011;31358;46.008;11.144;2022-07-29T08:28:14;2.55;;;1.50;;
45642;SDS011;31358;46.008;11.144;2022-07-29T08:30:39;2.47;;;1.52;;
45642;SDS011;31358;46.008;11.144;2022-07-29T08:33:05;2.65;;;1.27;;
45642;SDS011;31358;46.008;11.144;2022-07-29T08:35:31;2.78;;;1.10;;
45642;SDS011;31358;46.008;11.144;2022-07-29T08:37:56;2.25;;;1.23;;
45642;SDS011;31358;46.008;11.144;2022-07-29T08:40:23;4.45;;;1.33;;
45642;SDS011;31358;46.008;11.144;2022-07-29T08:42:49;2.75;;;1.30;;
45642;SDS011;31358;46.008;11.144;2022-07-29T08:45:15;3.53;;;1.50;;
45642;SDS011;31358;46.008;11.144;2022-07-29T08:47:43;3.22;;;1.40;;
45642;SDS011;31358;46.008;11.144;2022-07-29T08:50:10;3.53;;;1.60;;
45642;SDS011;31358;46.008;11.144;2022-07-29T08:52:37;2.60;;;1.23;;
45642;SDS011;31358;46.008;11.144;2022-07-29T08:55:06;3.08;;;1.58;;
45642;SDS011;31358;46.008;11.144;2022-07-29T08:57:33;3.38;;;1.30;;
45642;SDS011;31358;46.008;11.144;2022-07-29T09:00:00;2.38;;;1.30;;
45642;SDS011;31358;46.008;11.144;2022-07-29T09:02:29;2.53;;;1.35;;
45642;SDS011;31358;46.008;11.144;2022-07-29T09:05:01;2.58;;;1.30;;
45642;SDS011;31358;46.008;11.144;2022-07-29T09:07:27;2.47;;;1.33;;
45642;SDS011;31358;46.008;11.144;2022-07-29T09:09:53;3.55;;;1.65;;
45642;SDS011;31358;46.008;11.144;2022-07-29T09:12:19;3.08;;;1.60;;
45642;SDS011;31358;46.008;11.144;2022-07-29T09:14:47;2.72;;;1.45;;
45642;SDS011;31358;46.008;11.144;2022-07-29T09:17:12;2.38;;;1.17;;
45642;SDS011;31358;46.008;11.144;2022-07-29T09:19:41;2.45;;;1.48;;
45642;SDS011;31358;46.008;11.144;2022-07-29T09:22:07;2.58;;;1.38;;
45642;SDS011;31358;46.008;11.144;2022-07-29T09:24:44;2.65;;;1.45;;
45642;SDS011;31358;46.008;11.144;2022-07-29T09:27:22;3.50;;;1.60;;
45642;SDS011;31358;46.008;11.144;2022-07-29T09:29:57;2.45;;;1.50;;
45642;SDS011;31358;46.008;11.144;2022-07-29T09:32:24;4.47;;;1.63;;
45642;SDS011;31358;46.008;11.144;2022-07-29T09:34:51;2.78;;;1.50;;
45642;SDS011;31358;46.008;11.144;2022-07-29T09:37:40;3.42;;;1.77;;
45642;SDS011;31358;46.008;11.144;2022-07-29T09:40:12;4.25;;;1.52;;
45642;SDS011;31358;46.008;11.144;2022-07-29T09:42:42;3.10;;;1.88;;
45642;SDS011;31358;46.008;11.144;2022-07-29T09:45:09;3.67;;;1.75;;
45642;SDS011;31358;46.008;11.144;2022-07-29T09:47:45;5.18;;;1.92;;
45642;SDS011;31358;46.008;11.144;2022-07-29T09:50:14;3.22;;;1.92;;
45642;SDS011;31358;46.008;11.144;2022-07-29T09:52:48;4.43;;;2.00;;
45642;SDS011;31358;46.008;11.144;2022-07-29T09:55:15;3.55;;;1.50;;
45642;SDS011;31358;46.008;11.144;2022-07-29T09:57:42;3.53;;;1.67;;
45642;SDS011;31358;46.008;11.144;2022-07-29T10:00:16;3.55;;;1.52;;
45642;SDS011;31358;46.008;11.144;2022-07-29T10:02:44;2.53;;;1.35;;
45642;SDS011;31358;46.008;11.144;2022-07-29T10:12:55;3.17;;;1.20;;
45642;SDS011;31358;46.008;11.144;2022-07-29T10:15:26;3.17;;;1.40;;
45642;SDS011;31358;46.008;11.144;2022-07-29T10:17:54;2.65;;;1.38;;
45642;SDS011;31358;46.008;11.144;2022-07-29T10:20:21;3.85;;;1.70;;
45642;SDS011;31358;46.008;11.144;2022-07-29T10:22:48;2.70;;;1.40;;
45642;SDS011;31358;46.008;11.144;2022-07-29T10:25:15;5.40;;;1.48;;
45642;SDS011;31358;46.008;11.144;2022-07-29T10:27:43;2.88;;;1.52;;
45642;SDS011;31358;46.008;11.144;2022-07-29T10:30:13;3.35;;;1.33;;
45642;SDS011;31358;46.008;11.144;2022-07-29T10:32:47;2.95;;;1.70;;
45642;SDS011;31358;46.008;11.144;2022-07-29T10:41:00;2.85;;;1.65;;
45642;SDS011;31358;46.008;11.144;2022-07-29T10:43:54;2.28;;;1.10;;
45642;SDS011;31358;46.008;11.144;2022-07-29T10:49:09;2.65;;;1.20;;
45642;SDS011;31358;46.008;11.144;2022-07-29T11:05:10;2.10;;;1.10;;
45642;SDS011;31358;46.008;11.144;2022-07-29T11:07:37;3.03;;;1.58;;
45642;SDS011;31358;46.008;11.144;2022-07-29T11:18:06;3.70;;;1.25;;
45642;SDS011;31358;46.008;11.144;2022-07-29T11:20:45;2.67;;;1.23;;
45642;SDS011;31358;46.008;11.144;2022-07-29T11:23:22;5.65;;;1.38;;
45642;SDS011;31358;46.008;11.144;2022-07-29T11:28:49;2.08;;;1.23;;
45642;SDS011;31358;46.008;11.144;2022-07-29T11:31:20;2.72;;;1.42;;
45642;SDS011;31358;46.008;11.144;2022-07-29T11:47:37;2.65;;;1.33;;
45642;SDS011;31358;46.008;11.144;2022-07-29T11:50:12;3.05;;;1.55;;
45642;SDS011;31358;46.008;11.144;2022-07-29T11:52:46;2.83;;;1.50;;
45642;SDS011;31358;46.008;11.144;2022-07-29T11:55:15;3.17;;;1.73;;
45642;SDS011;31358;46.008;11.144;2022-07-29T11:57:45;2.65;;;1.20;;
45642;SDS011;31358;46.008;11.144;2022-07-29T12:00:28;5.05;;;1.80;;
45642;SDS011;31358;46.008;11.144;2022-07-29T12:02:55;4.28;;;1.95;;
45642;SDS011;31358;46.008;11.144;2022-07-29T12:05:29;6.35;;;1.55;;
45642;SDS011;31358;46.008;11.144;2022-07-29T12:10:38;3.35;;;1.38;;
45642;SDS011;31358;46.008;11.144;2022-07-29T12:13:05;4.10;;;1.52;;
45642;SDS011;31358;46.008;11.144;2022-07-29T12:15:31;2.22;;;1.40;;
45642;SDS011;31358;46.008;11.144;2022-07-29T12:17:57;1.98;;;1.10;;
45642;SDS011;31358;46.008;11.144;2022-07-29T12:20:26;3.20;;;1.92;;
45642;SDS011;31358;46.008;11.144;2022-07-29T12:22:54;3.38;;;1.67;;
45642;SDS011;31358;46.008;11.144;2022-07-29T12:25:21;3.38;;;1.65;;
45642;SDS011;31358;46.008;11.144;2022-07-29T12:28:01;3.88;;;1.40;;
45642;SDS011;31358;46.008;11.144;2022-07-29T12:30:42;4.10;;;1.40;;
45642;SDS011;31358;46.008;11.144;2022-07-29T12:33:11;5.88;;;1.50;;
45642;SDS011;31358;46.008;11.144;2022-07-29T12:35:38;2.95;;;1.15;;
45642;SDS011;31358;46.008;11.144;2022-07-29T12:38:04;3.15;;;2.03;;
45642;SDS011;31358;46.008;11.144;2022-07-29T12:40:30;2.35;;;1.40;;
45642;SDS011;31358;46.008;11.144;2022-07-29T12:43:09;2.15;;;1.38;;
45642;SDS011;31358;46.008;11.144;2022-07-29T12:45:38;3.72;;;2.53;;
45642;SDS011;31358;46.008;11.144;2022-07-29T12:48:07;3.15;;;1.83;;
45642;SDS011;31358;46.008;11.144;2022-07-29T12:50:34;3.30;;;1.73;;
45642;SDS011;31358;46.008;11.144;2022-07-29T12:53:13;3.85;;;1.88;;
45642;SDS011;31358;46.008;11.144;2022-07-29T12:55:43;3.22;;;1.70;;
45642;SDS011;31358;46.008;11.144;2022-07-29T12:58:13;3.55;;;2.03;;
45642;SDS011;31358;46.008;11.144;2022-07-29T13:01:01;4.30;;;1.90;;
45642;SDS011;31358;46.008;11.144;2022-07-29T13:03:49;4.60;;;1.92;;
45642;SDS011;31358;46.008;11.144;2022-07-29T13:11:51;3.05;;;1.60;;
45642;SDS011;31358;46.008;11.144;2022-07-29T13:17:05;4.32;;;1.95;;
45642;SDS011;31358;46.008;11.144;2022-07-29T13:22:06;2.92;;;1.63;;
45642;SDS011;31358;46.008;11.144;2022-07-29T13:24:33;4.72;;;2.03;;
45642;SDS011;31358;46.008;11.144;2022-07-29T13:26:59;4.72;;;2.08;;
45642;SDS011;31358;46.008;11.144;2022-07-29T13:29:25;4.72;;;1.92;;
45642;SDS011;31358;46.008;11.144;2022-07-29T13:31:51;4.15;;;2.00;;
45642;SDS011;31358;46.008;11.144;2022-07-29T13:34:17;3.60;;;1.80;;
45642;SDS011;31358;46.008;11.144;2022-07-29T13:36:45;4.07;;;2.13;;
45642;SDS011;31358;46.008;11.144;2022-07-29T13:39:10;3.63;;;1.75;;
45642;SDS011;31358;46.008;11.144;2022-07-29T13:41:36;4.63;;;2.13;;
45642;SDS011;31358;46.008;11.144;2022-07-29T13:44:02;3.75;;;1.80;;
45642;SDS011;31358;46.008;11.144;2022-07-29T13:46:28;2.88;;;1.83;;
45642;SDS011;31358;46.008;11.144;2022-07-29T13:48:53;3.35;;;2.05;;
45642;SDS011;31358;46.008;11.144;2022-07-29T13:51:19;4.25;;;2.10;;
45642;SDS011;31358;46.008;11.144;2022-07-29T13:53:44;5.30;;;2.15;;
45642;SDS011;31358;46.008;11.144;2022-07-29T13:56:10;3.67;;;2.00;;
45642;SDS011;31358;46.008;11.144;2022-07-29T13:58:36;5.57;;;1.92;;
45642;SDS011;31358;46.008;11.144;2022-07-29T14:01:01;4.07;;;2.40;;
45642;SDS011;31358;46.008;11.144;2022-07-29T14:03:27;4.38;;;2.30;;
45642;SDS011;31358;46.008;11.144;2022-07-29T14:05:53;3.70;;;2.30;;
45642;SDS011;31358;46.008;11.144;2022-07-29T14:08:19;4.75;;;2.13;;
45642;SDS011;31358;46.008;11.144;2022-07-29T14:10:44;4.15;;;2.38;;
45642;SDS011;31358;46.008;11.144;2022-07-29T14:13:10;4.20;;;1.92;;
45642;SDS011;31358;46.008;11.144;2022-07-29T14:15:36;4.25;;;2.22;;
45642;SDS011;31358;46.008;11.144;2022-07-29T14:18:01;3.60;;;2.08;;
45642;SDS011;31358;46.008;11.144;2022-07-29T14:20:27;4.53;;;2.45;;
45642;SDS011;31358;46.008;11.144;2022-07-29T14:22:55;4.25;;;2.30;;
45642;SDS011;31358;46.008;11.144;2022-07-29T14:25:21;5.60;;;2.20;;
45642;SDS011;31358;46.008;11.144;2022-07-29T14:27:47;3.78;;;2.33;;
45642;SDS011;31358;46.008;11.144;2022-07-29T14:30:13;4.00;;;2.30;;
45642;SDS011;31358;46.008;11.144;2022-07-29T14:32:39;4.20;;;1.83;;
45642;SDS011;31358;46.008;11.144;2022-07-29T14:35:05;3.67;;;2.00;;
45642;SDS011;31358;46.008;11.144;2022-07-29T14:37:31;3.88;;;1.85;;
45642;SDS011;31358;46.008;11.144;2022-07-29T14:39:57;3.72;;;2.17;;
45642;SDS011;31358;46.008;11.144;2022-07-29T14:42:26;3.67;;;1.95;;
45642;SDS011;31358;46.008;11.144;2022-07-29T14:44:52;4.57;;;2.42;;
45642;SDS011;31358;46.008;11.144;2022-07-29T14:47:18;4.15;;;2.00;;
45642;SDS011;31358;46.008;11.144;2022-07-29T14:49:44;3.25;;;1.70;;
45642;SDS011;31358;46.008;11.144;2022-07-29T14:52:10;3.72;;;1.90;;
45642;SDS011;31358;46.008;11.144;2022-07-29T14:54:35;2.88;;;1.73;;
45642;SDS011;31358;46.008;11.144;2022-07-29T14:57:01;2.97;;;1.77;;
45642;SDS011;31358;46.008;11.144;2022-07-29T14:59:27;4.55;;;2.03;;
45642;SDS011;31358;46.008;11.144;2022-07-29T15:01:52;5.65;;;2.20;;
45642;SDS011;31358;46.008;11.144;2022-07-29T15:04:18;3.63;;;1.95;;
45642;SDS011;31358;46.008;11.144;2022-07-29T15:06:44;4.82;;;2.60;;
45642;SDS011;31358;46.008;11.144;2022-07-29T15:09:10;3.67;;;1.67;;
45642;SDS011;31358;46.008;11.144;2022-07-29T15:11:36;3.65;;;2.10;;
45642;SDS011;31358;46.008;11.144;2022-07-29T15:14:02;4.35;;;2.55;;
45642;SDS011;31358;46.008;11.144;2022-07-29T15:16:28;4.25;;;2.00;;
45642;SDS011;31358;46.008;11.144;2022-07-29T15:18:53;3.67;;;1.77;;
45642;SDS011;31358;46.008;11.144;2022-07-29T15:21:19;4.88;;;2.28;;
45642;SDS011;31358;46.008;11.144;2022-07-29T15:23:45;3.75;;;2.13;;
45642;SDS011;31358;46.008;11.144;2022-07-29T15:26:10;5.50;;;2.35;;
45642;SDS011;31358;46.008;11.144;2022-07-29T15:28:36;3.10;;;1.73;;
45642;SDS011;31358;46.008;11.144;2022-07-29T15:31:01;4.22;;;2.38;;
45642;SDS011;31358;46.008;11.144;2022-07-29T15:33:27;3.08;;;1.88;;
45642;SDS011;31358;46.008;11.144;2022-07-29T15:35:53;5.07;;;1.88;;
45642;SDS011;31358;46.008;11.144;2022-07-29T15:38:20;4.75;;;2.15;;
45642;SDS011;31358;46.008;11.144;2022-07-29T15:40:46;3.17;;;1.80;;
45642;SDS011;31358;46.008;11.144;2022-07-29T15:43:11;3.20;;;1.75;;
45642;SDS011;31358;46.008;11.144;2022-07-29T15:45:41;3.78;;;1.83;;
45642;SDS011;31358;46.008;11.144;2022-07-29T15:48:27;3.25;;;1.83;;
45642;SDS011;31358;46.008;11.144;2022-07-29T15:50:53;3.78;;;2.08;;
45642;SDS011;31358;46.008;11.144;2022-07-29T15:53:18;4.20;;;2.42;;
45642;SDS011;31358;46.008;11.144;2022-07-29T15:55:44;4.32;;;2.58;;
45642;SDS011;31358;46.008;11.144;2022-07-29T15:58:09;18.35;;;3.00;;